createdAt,value
2017-04-24T00:00:00.539Z,1016.6
2017-04-24T00:00:41.417Z,1016.62
2017-04-24T00:01:22.292Z,1016.58
2017-04-24T00:02:03.174Z,1016.63
2017-04-24T00:02:44.039Z,1016.64
2017-04-24T00:03:24.916Z,1016.68
2017-04-24T00:04:05.784Z,1016.6
2017-04-24T00:04:46.660Z,1016.68
2017-04-24T00:05:27.542Z,1016.62
2017-04-24T00:06:08.417Z,1016.61
2017-04-24T00:06:49.292Z,1016.61
2017-04-24T00:07:30.215Z,1016.63
2017-04-24T00:08:11.086Z,1016.63
2017-04-24T00:08:51.959Z,1016.58
2017-04-24T00:09:32.828Z,1016.64
2017-04-24T00:11:41.783Z,1016.61
2017-04-24T00:12:22.666Z,1016.59
2017-04-24T00:13:03.540Z,1016.58
2017-04-24T00:13:44.421Z,1016.59
2017-04-24T00:14:25.282Z,1016.61
2017-04-24T00:15:06.168Z,1016.55
2017-04-24T00:15:47.057Z,1016.59
2017-04-24T00:16:27.934Z,1016.59
2017-04-24T00:17:08.802Z,1016.59
2017-04-24T00:17:49.676Z,1016.58
2017-04-24T00:18:30.533Z,1016.65
2017-04-24T00:19:11.411Z,1016.58
2017-04-24T00:19:52.289Z,1016.58
2017-04-24T00:20:33.163Z,1016.53
2017-04-24T00:21:14.048Z,1016.57
2017-04-24T00:21:54.922Z,1016.58
2017-04-24T00:22:35.780Z,1016.54
2017-04-24T00:23:16.645Z,1016.53
2017-04-24T00:23:57.536Z,1016.59
2017-04-24T00:24:38.411Z,1016.56
2017-04-24T00:25:19.285Z,1016.53
2017-04-24T00:26:00.162Z,1016.54
2017-04-24T00:26:41.037Z,1016.53
2017-04-24T00:27:21.922Z,1016.56
2017-04-24T00:28:02.800Z,1016.58
2017-04-24T00:28:43.700Z,1016.54
2017-04-24T00:29:24.567Z,1016.57
2017-04-24T00:30:05.444Z,1016.51
2017-04-24T00:30:46.316Z,1016.55
2017-04-24T00:31:27.203Z,1016.5
2017-04-24T00:32:08.077Z,1016.57
2017-04-24T00:32:48.957Z,1016.54
2017-04-24T00:33:29.852Z,1016.55
2017-04-24T00:34:10.726Z,1016.57
2017-04-24T00:34:51.606Z,1016.54
2017-04-24T00:35:32.475Z,1016.54
2017-04-24T00:36:13.352Z,1016.57
2017-04-24T00:36:54.203Z,1016.55
2017-04-24T00:37:35.113Z,1016.56
2017-04-24T00:38:15.995Z,1016.53
2017-04-24T00:38:56.857Z,1016.48
2017-04-24T00:39:37.739Z,1016.51
2017-04-24T00:40:18.611Z,1016.46
2017-04-24T00:40:59.466Z,1016.48
2017-04-24T00:41:40.344Z,1016.44
2017-04-24T00:42:21.238Z,1016.51
2017-04-24T00:43:02.115Z,1016.46
2017-04-24T00:43:42.981Z,1016.43
2017-04-24T00:44:23.851Z,1016.47
2017-04-24T00:45:04.723Z,1016.47
2017-04-24T00:45:45.611Z,1016.46
2017-04-24T00:46:26.496Z,1016.47
2017-04-24T00:47:07.374Z,1016.41
2017-04-24T00:47:48.249Z,1016.43
2017-04-24T00:48:29.119Z,1016.48
2017-04-24T00:49:10.002Z,1016.45
2017-04-24T00:49:50.888Z,1016.48
2017-04-24T00:50:31.762Z,1016.45
2017-04-24T00:51:12.663Z,1016.48
2017-04-24T00:51:53.528Z,1016.46
2017-04-24T00:52:34.409Z,1016.45
2017-04-24T00:53:15.290Z,1016.44
2017-04-24T00:53:56.176Z,1016.47
2017-04-24T00:54:37.038Z,1016.42
2017-04-24T00:55:17.911Z,1016.45
2017-04-24T00:55:58.790Z,1016.44
2017-04-24T00:56:39.663Z,1016.39
2017-04-24T00:57:20.556Z,1016.37
2017-04-24T00:58:01.425Z,1016.37
2017-04-24T00:58:42.301Z,1016.33
2017-04-24T00:59:23.172Z,1016.35
2017-04-24T01:00:04.068Z,1016.38
2017-04-24T01:00:44.938Z,1016.38
2017-04-24T01:01:25.819Z,1016.4
2017-04-24T01:02:06.674Z,1016.38
2017-04-24T01:02:47.540Z,1016.39
2017-04-24T01:03:28.417Z,1016.39
2017-04-24T01:04:09.303Z,1016.39
2017-04-24T01:04:50.192Z,1016.34
2017-04-24T01:05:31.063Z,1016.4
2017-04-24T01:06:11.934Z,1016.35
2017-04-24T01:06:52.791Z,1016.39
2017-04-24T01:07:33.674Z,1016.4
2017-04-24T01:08:14.557Z,1016.33
2017-04-24T01:08:55.432Z,1016.37
2017-04-24T01:09:36.314Z,1016.39
2017-04-24T01:10:17.168Z,1016.35
2017-04-24T01:10:58.040Z,1016.36
2017-04-24T01:11:38.920Z,1016.36
2017-04-24T01:12:19.806Z,1016.36
2017-04-24T01:13:00.707Z,1016.34
2017-04-24T01:13:41.579Z,1016.37
2017-04-24T01:14:22.455Z,1016.35
2017-04-24T01:15:03.338Z,1016.38
2017-04-24T01:15:44.218Z,1016.39
2017-04-24T01:16:25.099Z,1016.33
2017-04-24T01:17:05.954Z,1016.37
2017-04-24T01:17:46.817Z,1016.34
2017-04-24T01:18:27.701Z,1016.34
2017-04-24T01:19:08.598Z,1016.36
2017-04-24T01:19:49.467Z,1016.35
2017-04-24T01:20:30.340Z,1016.38
2017-04-24T01:21:11.201Z,1016.34
2017-04-24T01:21:52.071Z,1016.36
2017-04-24T01:22:32.924Z,1016.36
2017-04-24T01:23:13.806Z,1016.34
2017-04-24T01:23:54.699Z,1016.34
2017-04-24T01:24:35.575Z,1016.35
2017-04-24T01:25:16.447Z,1016.38
2017-04-24T01:25:57.322Z,1016.37
2017-04-24T01:26:38.199Z,1016.33
2017-04-24T01:27:19.089Z,1016.38
2017-04-24T01:27:59.957Z,1016.4
2017-04-24T01:28:40.830Z,1016.39
2017-04-24T01:29:21.696Z,1016.39
2017-04-24T01:30:02.557Z,1016.37
2017-04-24T01:30:43.484Z,1016.39
2017-04-24T01:31:24.357Z,1016.38
2017-04-24T01:32:05.222Z,1016.42
2017-04-24T01:32:46.089Z,1016.4
2017-04-24T01:33:26.956Z,1016.4
2017-04-24T01:34:07.844Z,1016.38
2017-04-24T01:34:48.728Z,1016.39
2017-04-24T01:35:29.610Z,1016.35
2017-04-24T01:36:10.479Z,1016.38
2017-04-24T01:36:51.440Z,1016.38
2017-04-24T01:37:32.303Z,1016.33
2017-04-24T01:38:13.164Z,1016.36
2017-04-24T01:38:54.023Z,1016.34
2017-04-24T01:39:34.899Z,1016.38
2017-04-24T01:40:15.773Z,1016.36
2017-04-24T01:40:56.653Z,1016.31
2017-04-24T01:41:37.528Z,1016.33
2017-04-24T01:42:18.393Z,1016.28
2017-04-24T01:42:59.265Z,1016.3
2017-04-24T01:43:40.141Z,1016.31
2017-04-24T01:44:21.017Z,1016.3
2017-04-24T01:45:01.906Z,1016.27
2017-04-24T01:45:42.774Z,1016.24
2017-04-24T01:46:23.660Z,1016.23
2017-04-24T01:47:04.507Z,1016.24
2017-04-24T01:47:45.439Z,1016.22
2017-04-24T01:48:26.316Z,1016.22
2017-04-24T01:49:07.195Z,1016.2
2017-04-24T01:49:48.045Z,1016.16
2017-04-24T01:50:28.913Z,1016.16
2017-04-24T01:51:09.782Z,1016.17
2017-04-24T01:51:50.690Z,1016.18
2017-04-24T01:52:31.566Z,1016.16
2017-04-24T01:53:12.441Z,1016.19
2017-04-24T01:53:53.297Z,1016.16
2017-04-24T01:54:34.158Z,1016.12
2017-04-24T01:55:15.029Z,1016.2
2017-04-24T01:55:55.912Z,1016.17
2017-04-24T01:56:36.788Z,1016.19
2017-04-24T01:57:17.676Z,1016.15
2017-04-24T01:57:58.551Z,1016.12
2017-04-24T01:58:39.388Z,1016.17
2017-04-24T01:59:20.267Z,1016.13
2017-04-24T02:00:01.112Z,1016.16
2017-04-24T02:00:41.985Z,1016.11
2017-04-24T02:01:22.862Z,1016.08
2017-04-24T02:02:03.757Z,1016.1
2017-04-24T02:02:44.641Z,1016.12
2017-04-24T02:03:25.520Z,1016.11
2017-04-24T02:04:06.373Z,1016.09
2017-04-24T02:04:47.229Z,1016.04
2017-04-24T02:05:28.105Z,1016.04
2017-04-24T02:06:08.943Z,1016.05
2017-04-24T02:06:49.801Z,1016.05
2017-04-24T02:07:30.665Z,1016.07
2017-04-24T02:08:11.539Z,1016.06
2017-04-24T02:08:52.432Z,1016.02
2017-04-24T02:09:33.301Z,1015.99
2017-04-24T02:10:14.177Z,1016.02
2017-04-24T02:10:55.050Z,1015.96
2017-04-24T02:11:35.956Z,1015.98
2017-04-24T02:12:16.836Z,1016.05
2017-04-24T02:12:57.737Z,1016
2017-04-24T02:13:38.590Z,1016
2017-04-24T02:14:19.488Z,1016
2017-04-24T02:15:00.350Z,1015.96
2017-04-24T02:15:41.245Z,1015.96
2017-04-24T02:16:22.107Z,1015.98
2017-04-24T02:17:02.979Z,1015.98
2017-04-24T02:17:43.859Z,1015.97
2017-04-24T02:18:24.736Z,1015.97
2017-04-24T02:19:05.622Z,1015.96
2017-04-24T02:19:46.528Z,1015.98
2017-04-24T02:20:27.406Z,1015.94
2017-04-24T02:21:08.306Z,1015.97
2017-04-24T02:21:49.179Z,1015.96
2017-04-24T02:22:30.057Z,1015.95
2017-04-24T02:23:10.927Z,1015.95
2017-04-24T02:23:51.804Z,1015.92
2017-04-24T02:24:32.714Z,1015.94
2017-04-24T02:25:13.584Z,1015.93
2017-04-24T02:25:54.448Z,1015.93
2017-04-24T02:26:35.316Z,1015.92
2017-04-24T02:27:16.210Z,1015.91
2017-04-24T02:27:57.090Z,1015.91
2017-04-24T02:28:37.996Z,1015.88
2017-04-24T02:29:18.874Z,1015.91
2017-04-24T02:29:59.757Z,1015.92
2017-04-24T02:30:40.634Z,1015.85
2017-04-24T02:31:21.507Z,1015.82
2017-04-24T02:32:02.396Z,1015.87
2017-04-24T02:32:43.267Z,1015.84
2017-04-24T02:33:24.156Z,1015.86
2017-04-24T02:34:05.027Z,1015.83
2017-04-24T02:34:45.900Z,1015.85
2017-04-24T02:35:26.770Z,1015.84
2017-04-24T02:36:07.643Z,1015.83
2017-04-24T02:36:48.540Z,1015.85
2017-04-24T02:38:47.056Z,1015.83
2017-04-24T02:39:27.920Z,1015.78
2017-04-24T02:40:08.826Z,1015.77
2017-04-24T02:40:49.692Z,1015.8
2017-04-24T02:41:30.558Z,1015.75
2017-04-24T02:42:11.416Z,1015.74
2017-04-24T02:42:52.286Z,1015.7
2017-04-24T02:43:33.156Z,1015.71
2017-04-24T02:44:14.019Z,1015.74
2017-04-24T02:44:54.889Z,1015.68
2017-04-24T02:45:35.779Z,1015.72
2017-04-24T02:46:16.656Z,1015.72
2017-04-24T02:46:57.537Z,1015.73
2017-04-24T02:47:38.470Z,1015.68
2017-04-24T02:48:19.377Z,1015.71
2017-04-24T02:49:00.266Z,1015.69
2017-04-24T02:49:41.165Z,1015.67
2017-04-24T02:50:22.030Z,1015.65
2017-04-24T02:51:02.914Z,1015.66
2017-04-24T02:51:43.806Z,1015.72
2017-04-24T02:52:24.685Z,1015.61
2017-04-24T02:53:05.556Z,1015.72
2017-04-24T02:53:46.430Z,1015.68
2017-04-24T02:54:27.302Z,1015.7
2017-04-24T02:55:08.167Z,1015.67
2017-04-24T02:55:49.046Z,1015.67
2017-04-24T02:56:29.932Z,1015.7
2017-04-24T02:57:10.810Z,1015.67
2017-04-24T02:57:51.689Z,1015.7
2017-04-24T02:58:32.569Z,1015.66
2017-04-24T02:59:13.431Z,1015.69
2017-04-24T02:59:54.324Z,1015.68
2017-04-24T03:00:35.204Z,1015.72
2017-04-24T03:01:16.076Z,1015.69
2017-04-24T03:01:56.941Z,1015.68
2017-04-24T03:02:37.819Z,1015.69
2017-04-24T03:03:18.691Z,1015.67
2017-04-24T03:03:59.578Z,1015.66
2017-04-24T03:04:40.452Z,1015.67
2017-04-24T03:05:21.325Z,1015.67
2017-04-24T03:06:02.191Z,1015.63
2017-04-24T03:06:43.088Z,1015.63
2017-04-24T03:07:23.998Z,1015.62
2017-04-24T03:08:04.832Z,1015.63
2017-04-24T03:08:45.712Z,1015.62
2017-04-24T03:09:26.580Z,1015.61
2017-04-24T03:10:07.435Z,1015.55
2017-04-24T03:10:48.332Z,1015.59
2017-04-24T03:11:29.221Z,1015.58
2017-04-24T03:12:10.089Z,1015.6
2017-04-24T03:12:50.969Z,1015.58
2017-04-24T03:13:31.829Z,1015.58
2017-04-24T03:14:12.718Z,1015.57
2017-04-24T03:14:53.598Z,1015.55
2017-04-24T03:15:34.491Z,1015.55
2017-04-24T03:16:15.334Z,1015.56
2017-04-24T03:16:56.210Z,1015.59
2017-04-24T03:17:37.080Z,1015.54
2017-04-24T03:18:17.969Z,1015.53
2017-04-24T03:18:58.862Z,1015.56
2017-04-24T03:19:39.708Z,1015.53
2017-04-24T03:20:20.593Z,1015.52
2017-04-24T03:21:01.449Z,1015.49
2017-04-24T03:21:42.330Z,1015.51
2017-04-24T03:22:23.273Z,1015.49
2017-04-24T03:23:04.132Z,1015.47
2017-04-24T03:23:45.047Z,1015.46
2017-04-24T03:24:25.869Z,1015.46
2017-04-24T03:25:06.703Z,1015.48
2017-04-24T03:25:47.587Z,1015.49
2017-04-24T03:26:28.466Z,1015.45
2017-04-24T03:27:09.339Z,1015.45
2017-04-24T03:27:50.226Z,1015.45
2017-04-24T03:28:31.083Z,1015.46
2017-04-24T03:29:11.953Z,1015.46
2017-04-24T03:29:52.829Z,1015.48
2017-04-24T03:30:33.686Z,1015.51
2017-04-24T03:31:14.552Z,1015.47
2017-04-24T03:31:55.433Z,1015.44
2017-04-24T03:32:36.316Z,1015.45
2017-04-24T03:33:17.200Z,1015.42
2017-04-24T03:33:58.077Z,1015.4
2017-04-24T03:34:38.937Z,1015.4
2017-04-24T03:35:19.812Z,1015.42
2017-04-24T03:36:00.687Z,1015.43
2017-04-24T03:36:41.573Z,1015.41
2017-04-24T03:37:22.447Z,1015.4
2017-04-24T03:38:03.390Z,1015.41
2017-04-24T03:38:44.260Z,1015.39
2017-04-24T03:39:25.144Z,1015.42
2017-04-24T03:40:06.040Z,1015.38
2017-04-24T03:40:46.921Z,1015.38
2017-04-24T03:41:27.789Z,1015.37
2017-04-24T03:42:08.648Z,1015.38
2017-04-24T03:42:49.515Z,1015.39
2017-04-24T03:43:30.401Z,1015.34
2017-04-24T03:44:11.264Z,1015.4
2017-04-24T03:44:52.143Z,1015.42
2017-04-24T03:45:33.023Z,1015.39
2017-04-24T03:46:13.901Z,1015.37
2017-04-24T03:46:54.756Z,1015.33
2017-04-24T03:47:35.615Z,1015.4
2017-04-24T03:48:16.499Z,1015.38
2017-04-24T03:48:57.363Z,1015.39
2017-04-24T03:49:38.252Z,1015.38
2017-04-24T03:50:19.127Z,1015.39
2017-04-24T03:51:00.006Z,1015.4
2017-04-24T03:51:40.864Z,1015.36
2017-04-24T03:52:21.724Z,1015.39
2017-04-24T03:53:02.581Z,1015.37
2017-04-24T03:53:43.436Z,1015.36
2017-04-24T03:54:24.323Z,1015.35
2017-04-24T03:55:05.216Z,1015.33
2017-04-24T03:55:46.094Z,1015.37
2017-04-24T03:56:26.968Z,1015.33
2017-04-24T03:57:07.822Z,1015.32
2017-04-24T03:57:48.692Z,1015.3
2017-04-24T03:58:29.549Z,1015.31
2017-04-24T03:59:10.409Z,1015.29
2017-04-24T03:59:51.265Z,1015.31
2017-04-24T04:00:32.154Z,1015.27
2017-04-24T04:01:13.039Z,1015.29
2017-04-24T04:01:53.923Z,1015.25
2017-04-24T04:02:34.796Z,1015.28
2017-04-24T04:03:15.654Z,1015.26
2017-04-24T04:03:56.512Z,1015.24
2017-04-24T04:04:37.370Z,1015.26
2017-04-24T04:05:18.229Z,1015.27
2017-04-24T04:05:59.134Z,1015.27
2017-04-24T04:06:40.037Z,1015.26
2017-04-24T04:07:20.909Z,1015.24
2017-04-24T04:08:01.787Z,1015.24
2017-04-24T04:08:42.680Z,1015.22
2017-04-24T04:09:23.591Z,1015.24
2017-04-24T04:10:04.464Z,1015.27
2017-04-24T04:10:45.354Z,1015.24
2017-04-24T04:11:26.226Z,1015.2
2017-04-24T04:12:07.110Z,1015.24
2017-04-24T04:12:47.977Z,1015.23
2017-04-24T04:13:28.836Z,1015.21
2017-04-24T04:14:09.699Z,1015.2
2017-04-24T04:14:50.570Z,1015.22
2017-04-24T04:15:31.463Z,1015.19
2017-04-24T04:16:12.357Z,1015.21
2017-04-24T04:16:53.217Z,1015.17
2017-04-24T04:17:34.076Z,1015.21
2017-04-24T04:18:14.936Z,1015.2
2017-04-24T04:18:55.809Z,1015.2
2017-04-24T04:19:36.725Z,1015.13
2017-04-24T04:20:17.586Z,1015.15
2017-04-24T04:20:58.470Z,1015.19
2017-04-24T04:21:39.364Z,1015.13
2017-04-24T04:22:20.239Z,1015.1
2017-04-24T04:23:01.147Z,1015.12
2017-04-24T04:24:41.646Z,1015.15
2017-04-24T04:25:22.631Z,1015.09
2017-04-24T04:26:03.509Z,1015.13
2017-04-24T04:26:44.378Z,1015.11
2017-04-24T04:27:25.237Z,1015.12
2017-04-24T04:28:06.124Z,1015.07
2017-04-24T04:28:47.090Z,1015.1
2017-04-24T04:29:27.909Z,1015.05
2017-04-24T04:30:08.868Z,1015.05
2017-04-24T04:30:49.739Z,1015.05
2017-04-24T04:31:30.817Z,1015.05
2017-04-24T04:32:11.695Z,1015
2017-04-24T04:32:56.137Z,1015.03
2017-04-24T04:33:37.013Z,1015.03
2017-04-24T04:34:17.896Z,1015.04
2017-04-24T04:34:58.766Z,1015.01
2017-04-24T04:35:39.638Z,1015.03
2017-04-24T04:36:20.510Z,1015.05
2017-04-24T04:37:01.387Z,1015.08
2017-04-24T04:37:42.293Z,1015.06
2017-04-24T04:38:23.207Z,1015.11
2017-04-24T04:39:04.091Z,1015.08
2017-04-24T04:39:44.977Z,1015.11
2017-04-24T04:40:25.833Z,1015.1
2017-04-24T04:41:06.739Z,1015.09
2017-04-24T04:41:47.617Z,1015.12
2017-04-24T04:42:28.484Z,1015.13
2017-04-24T04:43:09.359Z,1015.14
2017-04-24T04:43:50.231Z,1015.13
2017-04-24T04:44:31.110Z,1015.12
2017-04-24T04:45:12.003Z,1015.07
2017-04-24T04:45:52.975Z,1015.08
2017-04-24T04:46:33.851Z,1015.08
2017-04-24T04:47:14.710Z,1015.05
2017-04-24T04:47:55.575Z,1015.06
2017-04-24T04:48:36.503Z,1015.08
2017-04-24T04:49:17.387Z,1014.97
2017-04-24T04:49:58.300Z,1014.97
2017-04-24T04:50:39.133Z,1015.04
2017-04-24T04:51:20.076Z,1015.01
2017-04-24T04:52:00.950Z,1015.01
2017-04-24T04:52:41.847Z,1015.02
2017-04-24T04:53:22.737Z,1015.06
2017-04-24T04:54:03.602Z,1015.04
2017-04-24T04:54:44.484Z,1015.02
2017-04-24T04:55:25.354Z,1015.01
2017-04-24T04:56:06.235Z,1015.04
2017-04-24T04:56:47.108Z,1015.03
2017-04-24T04:57:27.989Z,1015.03
2017-04-24T04:58:08.892Z,1015.03
2017-04-24T04:58:52.383Z,1015.04
2017-04-24T04:59:33.277Z,1015.03
2017-04-24T05:00:14.158Z,1015.03
2017-04-24T05:00:56.855Z,1015.02
2017-04-24T05:01:37.772Z,1015.03
2017-04-24T05:02:18.653Z,1015.01
2017-04-24T05:02:59.580Z,1014.96
2017-04-24T05:03:40.447Z,1014.99
2017-04-24T05:04:21.315Z,1015.01
2017-04-24T05:05:02.219Z,1015.02
2017-04-24T05:05:43.115Z,1015.01
2017-04-24T05:06:23.994Z,1015.01
2017-04-24T05:07:04.910Z,1015.01
2017-04-24T05:07:45.818Z,1015
2017-04-24T05:08:26.705Z,1014.99
2017-04-24T05:09:07.593Z,1014.99
2017-04-24T05:09:48.475Z,1014.98
2017-04-24T05:10:29.345Z,1015
2017-04-24T05:11:10.230Z,1014.99
2017-04-24T05:11:51.107Z,1014.99
2017-04-24T05:12:31.980Z,1015.03
2017-04-24T05:13:12.843Z,1015.03
2017-04-24T05:13:53.704Z,1015.05
2017-04-24T05:14:34.609Z,1015.06
2017-04-24T05:15:15.482Z,1015.09
2017-04-24T05:15:56.363Z,1015.09
2017-04-24T05:16:37.229Z,1015.07
2017-04-24T05:17:18.114Z,1015.07
2017-04-24T05:17:58.995Z,1015.1
2017-04-24T05:18:39.879Z,1015.03
2017-04-24T05:19:20.820Z,1015.07
2017-04-24T05:21:29.929Z,1015.03
2017-04-24T05:22:10.811Z,1015.02
2017-04-24T05:22:51.691Z,1015.05
2017-04-24T05:23:32.563Z,1015.09
2017-04-24T05:24:13.424Z,1015.08
2017-04-24T05:24:54.282Z,1015.07
2017-04-24T05:25:35.169Z,1015.11
2017-04-24T05:26:16.058Z,1015.12
2017-04-24T05:26:56.931Z,1015.08
2017-04-24T05:27:37.815Z,1015.06
2017-04-24T05:28:18.675Z,1015.1
2017-04-24T05:28:59.552Z,1015.08
2017-04-24T05:29:40.438Z,1015.07
2017-04-24T05:30:21.351Z,1015.05
2017-04-24T05:31:02.234Z,1015.1
2017-04-24T05:31:43.126Z,1015.08
2017-04-24T05:32:24.020Z,1015.06
2017-04-24T05:33:04.952Z,1015.05
2017-04-24T05:33:45.910Z,1015.08
2017-04-24T05:34:26.832Z,1015.06
2017-04-24T05:35:08.555Z,1015.04
2017-04-24T05:35:49.579Z,1015.05
2017-04-24T05:36:30.449Z,1015.04
2017-04-24T05:37:11.328Z,1015.03
2017-04-24T05:37:52.272Z,1015.03
2017-04-24T05:38:33.081Z,1015
2017-04-24T05:39:13.957Z,1015.05
2017-04-24T05:42:09.990Z,1015.02
2017-04-24T05:42:51.012Z,1014.97
2017-04-24T05:43:31.977Z,1014.99
2017-04-24T05:44:12.945Z,1014.98
2017-04-24T05:44:53.848Z,1014.99
2017-04-24T05:47:29.501Z,1014.95
2017-04-24T05:48:11.456Z,1014.93
2017-04-24T05:56:57.225Z,1014.88
2017-04-24T05:57:38.111Z,1014.9
2017-04-24T05:58:18.987Z,1014.89
2017-04-24T05:59:00.172Z,1014.9
2017-04-24T05:59:40.924Z,1014.87
2017-04-24T06:00:21.802Z,1014.87
2017-04-24T06:07:02.306Z,1014.86
2017-04-24T06:07:43.171Z,1014.93
2017-04-24T06:08:24.038Z,1014.95
2017-04-24T06:09:04.926Z,1014.94
2017-04-24T06:09:45.797Z,1014.96
2017-04-24T06:10:26.692Z,1014.93
2017-04-24T06:11:07.593Z,1014.94
2017-04-24T06:11:48.445Z,1014.9
2017-04-24T06:12:29.310Z,1014.87
2017-04-24T06:13:10.164Z,1014.89
2017-04-24T06:13:51.027Z,1014.9
2017-04-24T06:14:31.909Z,1014.9
2017-04-24T06:15:12.803Z,1014.84
2017-04-24T06:15:53.675Z,1014.86
2017-04-24T06:16:34.553Z,1014.81
2017-04-24T06:18:12.999Z,1014.88
2017-04-24T06:18:53.887Z,1014.85
2017-04-24T06:19:34.776Z,1014.85
2017-04-24T06:20:15.638Z,1014.85
2017-04-24T06:20:56.520Z,1014.84
2017-04-24T06:21:37.452Z,1014.85
2017-04-24T06:22:18.342Z,1014.85
2017-04-24T06:22:59.206Z,1014.76
2017-04-24T06:23:40.091Z,1014.81
2017-04-24T06:24:20.962Z,1014.81
2017-04-24T06:25:01.841Z,1014.79
2017-04-24T06:25:42.705Z,1014.77
2017-04-24T06:26:23.580Z,1014.83
2017-04-24T06:27:04.448Z,1014.8
2017-04-24T06:27:45.381Z,1014.79
2017-04-24T06:28:26.234Z,1014.8
2017-04-24T06:29:07.099Z,1014.76
2017-04-24T06:29:47.951Z,1014.82
2017-04-24T06:30:28.814Z,1014.77
2017-04-24T06:31:09.696Z,1014.75
2017-04-24T06:31:50.570Z,1014.79
2017-04-24T06:32:31.448Z,1014.79
2017-04-24T06:33:12.325Z,1014.74
2017-04-24T06:33:53.249Z,1014.75
2017-04-24T06:34:34.127Z,1014.76
2017-04-24T06:35:15.007Z,1014.71
2017-04-24T06:35:55.886Z,1014.76
2017-04-24T06:36:37.051Z,1014.73
2017-04-24T06:37:17.931Z,1014.69
2017-04-24T06:37:58.820Z,1014.67
2017-04-24T06:38:39.706Z,1014.73
2017-04-24T06:39:20.576Z,1014.74
2017-04-24T06:40:01.447Z,1014.71
2017-04-24T06:40:42.337Z,1014.7
2017-04-24T06:41:23.228Z,1014.69
2017-04-24T06:42:04.098Z,1014.7
2017-04-24T06:42:44.978Z,1014.69
2017-04-24T06:43:25.858Z,1014.69
2017-04-24T06:44:06.727Z,1014.72
2017-04-24T06:44:47.602Z,1014.68
2017-04-24T06:45:28.617Z,1014.68
2017-04-24T06:46:09.428Z,1014.65
2017-04-24T06:46:50.313Z,1014.64
2017-04-24T06:47:31.189Z,1014.6
2017-04-24T06:48:12.069Z,1014.6
2017-04-24T06:48:52.959Z,1014.6
2017-04-24T06:49:33.842Z,1014.62
2017-04-24T06:50:14.719Z,1014.62
2017-04-24T06:50:55.600Z,1014.61
2017-04-24T06:51:36.487Z,1014.65
2017-04-24T06:52:17.361Z,1014.63
2017-04-24T06:52:58.245Z,1014.61
2017-04-24T06:53:39.101Z,1014.61
2017-04-24T06:54:19.988Z,1014.58
2017-04-24T06:55:00.880Z,1014.58
2017-04-24T06:56:59.733Z,1014.56
2017-04-24T06:57:40.610Z,1014.58
2017-04-24T06:58:21.507Z,1014.55
2017-04-24T06:59:02.385Z,1014.56
2017-04-24T06:59:43.266Z,1014.57
2017-04-24T07:00:24.164Z,1014.61
2017-04-24T07:01:05.060Z,1014.66
2017-04-24T07:01:45.918Z,1014.71
2017-04-24T07:02:26.786Z,1014.77
2017-04-24T07:03:07.672Z,1014.81
2017-04-24T07:03:48.563Z,1014.8
2017-04-24T07:04:29.483Z,1014.78
2017-04-24T07:05:10.374Z,1014.82
2017-04-24T07:05:51.268Z,1014.82
2017-04-24T07:06:32.148Z,1014.75
2017-04-24T07:07:13.036Z,1014.81
2017-04-24T07:07:53.911Z,1014.8
2017-04-24T07:08:34.815Z,1014.77
2017-04-24T07:09:15.686Z,1014.61
2017-04-24T07:09:56.576Z,1014.52
2017-04-24T07:10:37.517Z,1014.46
2017-04-24T07:11:18.403Z,1014.47
2017-04-24T07:11:59.286Z,1014.52
2017-04-24T07:12:40.160Z,1014.39
2017-04-24T07:13:21.058Z,1014.39
2017-04-24T07:14:01.962Z,1014.31
2017-04-24T07:14:42.837Z,1014.33
2017-04-24T07:15:23.708Z,1014.25
2017-04-24T07:16:04.600Z,1014.32
2017-04-24T07:16:45.480Z,1014.31
2017-04-24T07:17:26.364Z,1014.32
2017-04-24T07:18:07.251Z,1014.29
2017-04-24T07:18:48.138Z,1014.4
2017-04-24T07:19:29.024Z,1014.47
2017-04-24T07:20:09.912Z,1014.58
2017-04-24T07:20:50.808Z,1014.58
2017-04-24T07:21:31.697Z,1014.6
2017-04-24T07:22:12.582Z,1014.51
2017-04-24T07:22:53.456Z,1014.45
2017-04-24T07:23:34.346Z,1014.59
2017-04-24T07:24:15.301Z,1014.75
2017-04-24T07:24:56.179Z,1014.84
2017-04-24T07:25:37.063Z,1014.5
2017-04-24T07:26:17.949Z,1014.6
2017-04-24T07:26:58.834Z,1014.27
2017-04-24T07:27:39.724Z,1014.76
2017-04-24T07:28:20.613Z,1014.23
2017-04-24T07:29:01.504Z,1014.22
2017-04-24T07:29:42.396Z,1014.26
2017-04-24T07:30:23.273Z,1014.28
2017-04-24T07:31:04.167Z,1014.16
2017-04-24T07:31:45.056Z,1014.14
2017-04-24T07:32:25.946Z,1014.67
2017-04-24T07:33:06.843Z,1014.84
2017-04-24T07:33:47.730Z,1014.04
2017-04-24T07:34:28.619Z,1014.04
2017-04-24T07:35:09.505Z,1014.84
2017-04-24T07:35:50.409Z,1014.88
2017-04-24T07:36:31.291Z,1014.94
2017-04-24T07:37:12.201Z,1014.86
2017-04-24T07:37:53.089Z,1014.92
2017-04-24T07:38:33.978Z,1014.96
2017-04-24T07:39:14.861Z,1015.01
2017-04-24T07:39:55.752Z,1014.67
2017-04-24T07:40:36.711Z,1015
2017-04-24T07:41:17.616Z,1014.88
2017-04-24T07:41:58.508Z,1014.85
2017-04-24T07:42:39.404Z,1014.9
2017-04-24T07:43:20.294Z,1014.01
2017-04-24T07:44:01.183Z,1014.93
2017-04-24T07:44:42.080Z,1014.94
2017-04-24T07:45:22.961Z,1014.92
2017-04-24T07:46:03.833Z,1014.35
2017-04-24T07:46:44.728Z,1014.8
2017-04-24T07:47:25.650Z,1014.33
2017-04-24T07:48:06.507Z,1014.84
2017-04-24T07:48:47.390Z,1014.89
2017-04-24T07:49:28.279Z,1014.9
2017-04-24T07:50:09.168Z,1014.95
2017-04-24T07:50:50.060Z,1014.9
2017-04-24T07:51:30.953Z,1014.89
2017-04-24T07:52:11.843Z,1014.84
2017-04-24T07:52:52.750Z,1014.77
2017-04-24T07:53:33.634Z,1014.82
2017-04-24T07:54:14.516Z,1014.7
2017-04-24T07:54:55.405Z,1014.65
2017-04-24T07:55:36.427Z,1014.48
2017-04-24T07:56:17.322Z,1014.42
2017-04-24T07:56:58.213Z,1014.35
2017-04-24T07:57:39.101Z,1014.29
2017-04-24T07:58:19.991Z,1014.53
2017-04-24T07:59:00.894Z,1014.67
2017-04-24T07:59:41.788Z,1014.79
2017-04-24T08:00:22.682Z,1014.81
2017-04-24T08:01:03.574Z,1014.73
2017-04-24T08:01:44.506Z,1014.65
2017-04-24T08:02:26.166Z,1014.67
2017-04-24T08:09:07.596Z,1013.48
2017-04-24T08:11:03.936Z,1013.62
2017-04-24T08:11:44.823Z,1013.94
2017-04-24T08:12:25.733Z,1014.22
2017-04-24T08:13:06.649Z,1014.07
2017-04-24T08:13:47.554Z,1014.04
2017-04-24T08:14:28.442Z,1014.51
2017-04-24T08:15:09.331Z,1014.51
2017-04-24T08:15:50.218Z,1014.42
2017-04-24T08:16:31.111Z,1014.42
2017-04-24T08:17:11.995Z,1014.39
2017-04-24T08:17:52.879Z,1014.29
2017-04-24T08:18:33.777Z,1014.39
2017-04-24T08:19:14.657Z,1014.4
2017-04-24T08:19:55.542Z,1014.4
2017-04-24T08:20:36.433Z,1014.35
2017-04-24T08:21:17.330Z,1014.28
2017-04-24T08:21:58.210Z,1013.42
2017-04-24T08:22:39.110Z,1013.39
2017-04-24T08:23:20.006Z,1013.57
2017-04-24T08:24:00.900Z,1013.78
2017-04-24T08:24:41.815Z,1013.62
2017-04-24T08:25:22.704Z,1013.57
2017-04-24T08:26:03.602Z,1013.45
2017-04-24T08:26:44.494Z,1013.48
2017-04-24T08:27:25.381Z,1013.61
2017-04-24T08:28:06.274Z,1013.4
2017-04-24T08:28:47.232Z,1013.29
2017-04-24T08:29:28.228Z,1013.52
2017-04-24T08:31:42.039Z,1013.27
2017-04-24T08:32:22.881Z,1013.27
2017-04-24T08:33:03.749Z,1013.27
2017-04-24T08:33:44.638Z,1013.33
2017-04-24T08:34:25.502Z,1013.33
2017-04-24T08:35:06.389Z,1013.35
2017-04-24T08:35:47.277Z,1013.29
2017-04-24T08:36:28.175Z,1013.32
2017-04-24T08:37:09.101Z,1013.35
2017-04-24T08:37:50.064Z,1013.24
2017-04-24T08:38:30.974Z,1013.38
2017-04-24T08:39:11.872Z,1013.4
2017-04-24T08:39:52.768Z,1013.29
2017-04-24T08:40:33.698Z,1013.27
2017-04-24T08:41:14.588Z,1013.31
2017-04-24T08:41:55.476Z,1013.24
2017-04-24T08:42:36.360Z,1013.27
2017-04-24T08:43:17.266Z,1013.15
2017-04-24T08:43:58.144Z,1013.18
2017-04-24T08:44:39.043Z,1013.2
2017-04-24T08:45:19.933Z,1013.2
2017-04-24T08:46:00.820Z,1013.05
2017-04-24T08:46:41.701Z,1013.09
2017-04-24T08:47:22.594Z,1013.18
2017-04-24T08:48:03.488Z,1013.19
2017-04-24T08:48:44.383Z,1013.16
2017-04-24T08:49:25.285Z,1013.06
2017-04-24T08:50:06.169Z,1013.06
2017-04-24T08:50:47.154Z,1012.99